CheckWX is a tool to help pilots better visualize weather data.  It is not intended as a substitute for an official pre-flight weather briefing.

09:46:45 UTC

KBLV METAR
Scott AFB / Midamerica Airport
Belleville, Illinois, USA
Current

51 mins ago

KBLV 290856Z AUTO 34005KT 10SM CLR M04/M07 A3024 RMK AO2 SLP247 T10371073 52008 $
Observed
Feb-29 @ 08:56 UTC
Wind
  • 340° at 5 KTS
Visibility
10 SM
Flight Rules
VFR
Cloud Levels
  • Clear skies
Temperature
-4°C / 25°F
Dewpoint
-7°C / 19°F
Humidity
80%
Altimeter
30.24" Hg
Pressure
1024.02 hPa
Previous

2 hours ago

KBLV 290756Z AUTO 36007KT 10SM CLR M03/M07 A3024 RMK AO2 SLP247 T10281068 $
Observed
Feb-29 @ 07:56 UTC
Wind
  • 360° at 7 KTS
Visibility
10 SM
Flight Rules
VFR
Cloud Levels
  • Clear skies
Temperature
-3°C / 27°F
Dewpoint
-7°C / 19°F
Humidity
74%
Altimeter
30.24" Hg
Pressure
1024.02 hPa
Previous

3 hours ago

KBLV 290656Z AUTO 36003KT 10SM CLR M03/M06 A3023 RMK AO2 SLP244 T10271064 $
Observed
Feb-29 @ 06:56 UTC
Wind
  • 360° at 3 KTS
Visibility
10 SM
Flight Rules
VFR
Cloud Levels
  • Clear skies
Temperature
-3°C / 27°F
Dewpoint
-6°C / 21°F
Humidity
80%
Altimeter
30.23" Hg
Pressure
1023.72 hPa